»·PEaware :: N338DK KSNA-KLAS

N338DK :: KSNA-KLAS

FLIGHT INFORMATION

Flight Status: Arrived
Operator: Privately registered:
United States
More flights under this callsign
Pilot: Anthony R. (29179)
Aircraft: CIRRUS VISIONJET
(SF50)
More flights by this aircraft type
Origin: KSNA John Wayne-Orange Co
United States
Destination: KLAS McCarran Intl
United States
More flights between these airports :: More routes between these airports
Route: +FINZZ2 MISEN KEPEC6
File this flight plan on PilotEdge
Remarks:
Altitude:
(Current/Filed)
15,000ft
Speed:
(Current/Filed)
300kts
Departed: 23-May-20 12:02 PM
Arrived: 23-May-20 01:13 PM
Distance/Time
Traveled:
196nm/1:11
Distance/Time
To Go:
Arrived

Flight Plot

Page will automatically refresh every two minutes.


Map Options




Map Legend


Flown Route
Filed Route
Departure Airport
Arrival Airport
Navaid (VOR, NDB)
Fix

Horizontal Profiles

Position Reports

Time Latitude Longitude Heading Altitude Ground
Speed
23-May-20 11:37 33.674078 -117.872224 298 60ft 0kts
23-May-20 11:38 33.674078 -117.872224 298 60ft 0kts
23-May-20 11:38 33.674078 -117.872224 298 60ft 0kts
23-May-20 11:39 33.674078 -117.872224 298 60ft 0kts
23-May-20 11:41 33.674078 -117.872224 298 60ft 0kts
23-May-20 11:41 33.674078 -117.872224 298 60ft 0kts
23-May-20 11:42 33.674078 -117.872224 298 60ft 0kts
23-May-20 11:44 33.674078 -117.872224 298 60ft 0kts
23-May-20 11:44 33.674078 -117.872224 298 60ft 0kts
23-May-20 11:45 33.674078 -117.872224 298 60ft 0kts
23-May-20 11:46 33.674078 -117.872224 298 60ft 0kts
23-May-20 11:47 33.674078 -117.872224 298 60ft 0kts
23-May-20 11:48 33.674078 -117.872224 298 60ft 0kts
23-May-20 11:49 33.674078 -117.872224 298 60ft 0kts
23-May-20 11:50 33.674078 -117.872224 298 60ft 0kts
23-May-20 11:51 33.674078 -117.872224 298 60ft 0kts
23-May-20 11:52 33.674078 -117.872224 298 60ft 0kts
23-May-20 11:53 33.674078 -117.872224 298 60ft 0kts
23-May-20 11:54 33.674106 -117.872122 108 60ft 2kts
23-May-20 11:55 33.674759 -117.870914 27 60ft 8kts
23-May-20 11:56 33.677531 -117.869142 26 60ft 14kts
23-May-20 11:57 33.681480 -117.866840 26 60ft 14kts
23-May-20 11:58 33.681927 -117.866178 81 60ft 0kts
23-May-20 11:59 33.681927 -117.866178 81 60ft 0kts
23-May-20 12:00 33.681699 -117.865453 120 60ft 8kts
23-May-20 12:01 33.672880 -117.870591 207 91ft 119kts
23-May-20 12:02 33.634462 -117.886163 194 1885ft 174kts
23-May-20 12:03 33.578400 -117.898622 200 2974ft 209kts
23-May-20 12:04 33.534014 -117.941686 223 3980ft 212kts
23-May-20 12:05 33.494320 -117.995766 264 4954ft 227kts
23-May-20 12:06 33.528223 -118.063083 310 5157ft 245kts
23-May-20 12:07 33.574140 -118.119092 332 6348ft 238kts
23-May-20 12:08 33.638637 -118.101020 23 8386ft 251kts
23-May-20 12:09 33.701036 -118.064684 22 10424ft 248kts
23-May-20 12:10 33.761894 -118.029197 22 12218ft 236kts
23-May-20 12:11 33.820272 -117.995119 21 13911ft 234kts
23-May-20 12:12 33.878908 -117.960828 20 15608ft 234kts
23-May-20 12:13 33.934408 -117.919169 31 16985ft 249kts
23-May-20 12:14 33.993123 -117.865482 32 16998ft 276kts
23-May-20 12:15 34.055602 -117.808264 32 17014ft 285kts
23-May-20 12:16 34.113532 -117.741756 46 17016ft 293kts
23-May-20 12:17 34.165166 -117.665179 46 17014ft 295kts
23-May-20 12:18 34.216935 -117.588257 46 17011ft 296kts
23-May-20 12:19 34.268825 -117.510981 46 17015ft 296kts
23-May-20 12:20 34.320653 -117.433627 46 17024ft 296kts
23-May-20 12:21 34.372415 -117.356206 46 17034ft 296kts
23-May-20 12:22 34.424160 -117.278637 47 17028ft 296kts
23-May-20 12:23 34.475937 -117.200853 47 17025ft 296kts
23-May-20 12:24 34.527435 -117.123318 47 17029ft 296kts
23-May-20 12:25 34.579689 -117.046571 46 17026ft 296kts
23-May-20 12:26 34.632540 -116.969558 46 17015ft 297kts
23-May-20 12:27 34.685546 -116.892153 47 17003ft 298kts
23-May-20 12:28 34.738667 -116.814402 47 17000ft 299kts
23-May-20 12:29 34.790549 -116.738289 47 17000ft 287kts
23-May-20 12:30 34.840659 -116.664639 47 17001ft 280kts
23-May-20 12:31 34.897765 -116.602648 34 17002ft 273kts
23-May-20 12:32 34.956868 -116.545311 33 17004ft 269kts
23-May-20 12:33 35.014860 -116.489023 33 17008ft 263kts
23-May-20 12:34 35.071381 -116.434060 33 17023ft 257kts
23-May-20 12:35 35.124464 -116.376114 39 17030ft 257kts
23-May-20 12:36 35.174563 -116.313569 40 17027ft 257kts
23-May-20 12:37 35.224466 -116.251000 40 17027ft 256kts
23-May-20 12:38 35.274120 -116.188624 40 17021ft 256kts
23-May-20 12:39 35.323939 -116.125913 40 16524ft 253kts
23-May-20 12:40 35.372352 -116.064870 41 16023ft 247kts
23-May-20 12:41 35.419841 -116.004885 41 15524ft 244kts
23-May-20 12:42 35.467000 -115.945208 41 15026ft 243kts
23-May-20 12:43 35.513898 -115.885754 41 14527ft 242kts
23-May-20 12:44 35.560672 -115.826351 42 14029ft 242kts
23-May-20 12:45 35.607325 -115.766994 42 13529ft 241kts
23-May-20 12:46 35.653913 -115.707613 42 13041ft 241kts
23-May-20 12:47 35.701002 -115.647486 42 13017ft 243kts
23-May-20 12:48 35.747574 -115.588316 36 13015ft 239kts
23-May-20 12:49 35.810303 -115.572620 0 13018ft 233kts
23-May-20 12:50 35.875160 -115.569828 359 13017ft 234kts
23-May-20 12:51 35.940090 -115.568669 358 13017ft 234kts
23-May-20 12:52 36.004677 -115.564572 28 12964ft 241kts
23-May-20 12:53 36.009529 -115.485891 86 12458ft 241kts
23-May-20 12:54 36.024026 -115.408050 71 11954ft 229kts
23-May-20 12:55 36.027829 -115.330011 92 11443ft 229kts
23-May-20 12:56 36.022141 -115.251515 92 10933ft 230kts
23-May-20 12:57 36.016563 -115.172876 92 10319ft 226kts
23-May-20 12:58 36.011533 -115.098947 92 9348ft 207kts
23-May-20 12:59 36.007227 -115.028992 91 8331ft 203kts
23-May-20 13:00 36.002925 -114.959626 91 7312ft 202kts
23-May-20 13:01 35.998541 -114.890824 91 6312ft 200kts
23-May-20 13:02 35.994081 -114.823046 91 5505ft 188kts
23-May-20 13:03 36.013851 -114.791750 317 5401ft 142kts
23-May-20 13:04 36.030306 -114.844220 291 5011ft 178kts
23-May-20 13:05 36.046147 -114.902535 290 5002ft 179kts
23-May-20 13:06 36.066741 -114.943016 293 4993ft 121kts
23-May-20 13:07 36.073766 -114.982815 271 4431ft 114kts
23-May-20 13:08 36.073615 -115.016342 273 3849ft 99kts
23-May-20 13:09 36.073646 -115.050656 274 3285ft 100kts
23-May-20 13:10 36.073662 -115.085107 274 2742ft 100kts
23-May-20 13:11 36.073653 -115.119807 275 2211ft 101kts
23-May-20 13:12 36.074143 -115.144603 290 2096ft 30kts
23-May-20 13:13 36.074711 -115.145878 298 2099ft 0kts
23-May-20 13:14 36.074711 -115.145878 298 2099ft 0kts
23-May-20 13:15 36.075393 -115.146539 352 2101ft 12kts
23-May-20 13:16 36.077426 -115.146626 332 2099ft 0kts
23-May-20 13:18 36.077731 -115.147150 292 2100ft 6kts
23-May-20 13:19 36.077990 -115.150195 273 2109ft 11kts
23-May-20 13:20 36.078021 -115.154933 274 2127ft 16kts
23-May-20 13:21 36.078092 -115.161262 265 2149ft 21kts
23-May-20 13:22 36.078044 -115.168899 270 2173ft 18kts
23-May-20 13:23 36.080370 -115.170717 292 2170ft 10kts

Navigation Log

Ident Type
Flight plan parsing failed, navigation log unavailable